sensor_id;sensor_type;location;lat;lon;timestamp;P1;durP1;ratioP1;P2;durP2;ratioP2
18316;SDS011;9284;52.298;21.164;2022-07-09T03:15:52;14.25;;;6.80;;
18316;SDS011;9284;52.298;21.164;2022-07-09T03:18:20;12.63;;;6.15;;
18316;SDS011;9284;52.298;21.164;2022-07-09T03:20:48;12.98;;;6.15;;
18316;SDS011;9284;52.298;21.164;2022-07-09T03:23:17;14.98;;;6.40;;
18316;SDS011;9284;52.298;21.164;2022-07-09T03:25:45;12.15;;;5.90;;
18316;SDS011;9284;52.298;21.164;2022-07-09T03:28:13;18.63;;;6.82;;
18316;SDS011;9284;52.298;21.164;2022-07-09T03:30:41;12.50;;;6.00;;
18316;SDS011;9284;52.298;21.164;2022-07-09T03:33:11;10.68;;;6.20;;
18316;SDS011;9284;52.298;21.164;2022-07-09T03:35:39;14.57;;;6.00;;
18316;SDS011;9284;52.298;21.164;2022-07-09T03:38:07;13.82;;;5.88;;
18316;SDS011;9284;52.298;21.164;2022-07-09T03:40:35;12.13;;;5.70;;
18316;SDS011;9284;52.298;21.164;2022-07-09T03:43:03;10.90;;;5.45;;
18316;SDS011;9284;52.298;21.164;2022-07-09T03:45:31;11.25;;;5.32;;
18316;SDS011;9284;52.298;21.164;2022-07-09T03:47:59;11.23;;;5.70;;
18316;SDS011;9284;52.298;21.164;2022-07-09T03:50:29;11.75;;;5.47;;
18316;SDS011;9284;52.298;21.164;2022-07-09T03:52:57;13.27;;;5.55;;
18316;SDS011;9284;52.298;21.164;2022-07-09T03:55:25;13.85;;;5.60;;
18316;SDS011;9284;52.298;21.164;2022-07-09T03:57:53;12.60;;;5.32;;
18316;SDS011;9284;52.298;21.164;2022-07-09T04:00:22;12.77;;;5.35;;
18316;SDS011;9284;52.298;21.164;2022-07-09T04:02:50;10.75;;;5.15;;
18316;SDS011;9284;52.298;21.164;2022-07-09T04:05:18;9.77;;;5.22;;
18316;SDS011;9284;52.298;21.164;2022-07-09T04:07:48;8.35;;;4.95;;
18316;SDS011;9284;52.298;21.164;2022-07-09T04:10:16;12.80;;;5.30;;
18316;SDS011;9284;52.298;21.164;2022-07-09T04:12:46;10.77;;;4.95;;
18316;SDS011;9284;52.298;21.164;2022-07-09T04:15:17;9.27;;;5.32;;
18316;SDS011;9284;52.298;21.164;2022-07-09T04:17:45;10.38;;;5.25;;
18316;SDS011;9284;52.298;21.164;2022-07-09T04:20:14;13.02;;;5.97;;
18316;SDS011;9284;52.298;21.164;2022-07-09T04:22:42;11.75;;;5.43;;
18316;SDS011;9284;52.298;21.164;2022-07-09T04:25:11;13.60;;;5.72;;
18316;SDS011;9284;52.298;21.164;2022-07-09T04:27:40;10.15;;;5.68;;
18316;SDS011;9284;52.298;21.164;2022-07-09T04:30:08;9.88;;;5.47;;
18316;SDS011;9284;52.298;21.164;2022-07-09T04:32:37;9.85;;;5.55;;
18316;SDS011;9284;52.298;21.164;2022-07-09T04:35:06;11.75;;;5.68;;
18316;SDS011;9284;52.298;21.164;2022-07-09T04:37:34;12.60;;;5.65;;
18316;SDS011;9284;52.298;21.164;2022-07-09T04:40:03;10.90;;;5.70;;
18316;SDS011;9284;52.298;21.164;2022-07-09T04:42:34;10.32;;;5.60;;
18316;SDS011;9284;52.298;21.164;2022-07-09T04:45:02;14.57;;;5.50;;
18316;SDS011;9284;52.298;21.164;2022-07-09T04:47:31;14.63;;;6.22;;
18316;SDS011;9284;52.298;21.164;2022-07-09T04:49:59;10.15;;;5.43;;
18316;SDS011;9284;52.298;21.164;2022-07-09T04:52:27;8.75;;;4.72;;
18316;SDS011;9284;52.298;21.164;2022-07-09T04:54:55;9.00;;;4.72;;
18316;SDS011;9284;52.298;21.164;2022-07-09T04:57:23;9.57;;;4.63;;
18316;SDS011;9284;52.298;21.164;2022-07-09T04:59:53;11.02;;;4.75;;
18316;SDS011;9284;52.298;21.164;2022-07-09T05:02:25;10.60;;;4.85;;
18316;SDS011;9284;52.298;21.164;2022-07-09T05:04:53;7.65;;;4.45;;
18316;SDS011;9284;52.298;21.164;2022-07-09T05:07:21;8.88;;;4.55;;
18316;SDS011;9284;52.298;21.164;2022-07-09T05:09:49;6.80;;;5.03;;
18316;SDS011;9284;52.298;21.164;2022-07-09T05:12:17;9.35;;;5.10;;
18316;SDS011;9284;52.298;21.164;2022-07-09T05:14:45;11.07;;;5.97;;
18316;SDS011;9284;52.298;21.164;2022-07-09T05:17:15;10.45;;;5.28;;
18316;SDS011;9284;52.298;21.164;2022-07-09T05:19:43;12.75;;;5.63;;
18316;SDS011;9284;52.298;21.164;2022-07-09T05:22:12;9.30;;;4.50;;
18316;SDS011;9284;52.298;21.164;2022-07-09T05:24:40;5.93;;;4.38;;
18316;SDS011;9284;52.298;21.164;2022-07-09T05:27:08;9.52;;;4.13;;
18316;SDS011;9284;52.298;21.164;2022-07-09T05:29:36;5.82;;;3.60;;
18316;SDS011;9284;52.298;21.164;2022-07-09T05:32:05;8.88;;;3.85;;
18316;SDS011;9284;52.298;21.164;2022-07-09T05:34:35;9.70;;;3.50;;
18316;SDS011;9284;52.298;21.164;2022-07-09T05:37:04;6.78;;;3.50;;
18316;SDS011;9284;52.298;21.164;2022-07-09T05:39:38;9.70;;;3.72;;
18316;SDS011;9284;52.298;21.164;2022-07-09T05:42:07;7.15;;;3.13;;
18316;SDS011;9284;52.298;21.164;2022-07-09T05:44:35;7.53;;;3.30;;
18316;SDS011;9284;52.298;21.164;2022-07-09T05:47:04;5.70;;;3.13;;
18316;SDS011;9284;52.298;21.164;2022-07-09T05:49:32;7.75;;;3.20;;
18316;SDS011;9284;52.298;21.164;2022-07-09T05:52:02;7.53;;;2.70;;
18316;SDS011;9284;52.298;21.164;2022-07-09T05:54:30;9.45;;;4.07;;
18316;SDS011;9284;52.298;21.164;2022-07-09T05:56:58;6.82;;;3.05;;
18316;SDS011;9284;52.298;21.164;2022-07-09T05:59:26;6.00;;;2.80;;
18316;SDS011;9284;52.298;21.164;2022-07-09T06:01:54;5.10;;;2.72;;
18316;SDS011;9284;52.298;21.164;2022-07-09T06:04:23;7.55;;;3.22;;
18316;SDS011;9284;52.298;21.164;2022-07-09T06:06:51;9.55;;;2.53;;
18316;SDS011;9284;52.298;21.164;2022-07-09T06:09:20;5.28;;;2.17;;
18316;SDS011;9284;52.298;21.164;2022-07-09T06:11:48;4.25;;;2.40;;
18316;SDS011;9284;52.298;21.164;2022-07-09T06:14:17;5.03;;;2.50;;
18316;SDS011;9284;52.298;21.164;2022-07-09T06:16:52;7.00;;;2.30;;
18316;SDS011;9284;52.298;21.164;2022-07-09T06:19:22;4.28;;;2.33;;
18316;SDS011;9284;52.298;21.164;2022-07-09T06:21:50;5.40;;;2.15;;
18316;SDS011;9284;52.298;21.164;2022-07-09T06:24:19;5.22;;;2.30;;
18316;SDS011;9284;52.298;21.164;2022-07-09T06:26:50;3.65;;;1.83;;
18316;SDS011;9284;52.298;21.164;2022-07-09T06:29:18;6.40;;;2.05;;
18316;SDS011;9284;52.298;21.164;2022-07-09T06:31:46;5.00;;;1.90;;
18316;SDS011;9284;52.298;21.164;2022-07-09T06:34:14;7.43;;;2.58;;
18316;SDS011;9284;52.298;21.164;2022-07-09T06:36:43;3.67;;;1.80;;
18316;SDS011;9284;52.298;21.164;2022-07-09T06:39:11;5.88;;;1.73;;
18316;SDS011;9284;52.298;21.164;2022-07-09T06:42:03;8.13;;;2.28;;
18316;SDS011;9284;52.298;21.164;2022-07-09T06:44:32;4.22;;;1.58;;
18316;SDS011;9284;52.298;21.164;2022-07-09T06:47:01;5.93;;;1.80;;
18316;SDS011;9284;52.298;21.164;2022-07-09T06:49:29;3.65;;;2.05;;
18316;SDS011;9284;52.298;21.164;2022-07-09T06:51:57;7.18;;;2.10;;
18316;SDS011;9284;52.298;21.164;2022-07-09T06:54:25;2.22;;;1.65;;
18316;SDS011;9284;52.298;21.164;2022-07-09T06:56:53;6.47;;;1.90;;
18316;SDS011;9284;52.298;21.164;2022-07-09T06:59:24;4.38;;;2.00;;
18316;SDS011;9284;52.298;21.164;2022-07-09T07:01:52;5.65;;;2.38;;
18316;SDS011;9284;52.298;21.164;2022-07-09T07:04:20;5.10;;;2.28;;
18316;SDS011;9284;52.298;21.164;2022-07-09T07:06:48;4.65;;;2.10;;
18316;SDS011;9284;52.298;21.164;2022-07-09T07:09:17;6.97;;;2.40;;
18316;SDS011;9284;52.298;21.164;2022-07-09T07:11:47;4.50;;;1.98;;
18316;SDS011;9284;52.298;21.164;2022-07-09T07:14:16;3.67;;;2.38;;
18316;SDS011;9284;52.298;21.164;2022-07-09T07:16:46;4.43;;;1.92;;
18316;SDS011;9284;52.298;21.164;2022-07-09T07:19:14;3.78;;;1.88;;
18316;SDS011;9284;52.298;21.164;2022-07-09T07:21:43;5.50;;;2.10;;
18316;SDS011;9284;52.298;21.164;2022-07-09T07:24:11;2.85;;;1.80;;
18316;SDS011;9284;52.298;21.164;2022-07-09T07:26:40;3.58;;;2.10;;
18316;SDS011;9284;52.298;21.164;2022-07-09T07:29:08;3.85;;;1.98;;
18316;SDS011;9284;52.298;21.164;2022-07-09T07:31:38;3.13;;;2.15;;
18316;SDS011;9284;52.298;21.164;2022-07-09T07:34:08;4.57;;;2.17;;
18316;SDS011;9284;52.298;21.164;2022-07-09T07:36:36;6.05;;;2.90;;
18316;SDS011;9284;52.298;21.164;2022-07-09T07:39:04;5.15;;;2.58;;
18316;SDS011;9284;52.298;21.164;2022-07-09T07:41:32;3.55;;;2.47;;
18316;SDS011;9284;52.298;21.164;2022-07-09T07:44:00;3.28;;;2.38;;
18316;SDS011;9284;52.298;21.164;2022-07-09T07:46:28;3.08;;;2.17;;
18316;SDS011;9284;52.298;21.164;2022-07-09T07:48:57;3.13;;;2.40;;
18316;SDS011;9284;52.298;21.164;2022-07-09T07:51:26;2.42;;;2.20;;
18316;SDS011;9284;52.298;21.164;2022-07-09T07:53:54;3.85;;;2.28;;
18316;SDS011;9284;52.298;21.164;2022-07-09T07:56:23;6.03;;;1.52;;
18316;SDS011;9284;52.298;21.164;2022-07-09T07:58:51;2.13;;;1.42;;
18316;SDS011;9284;52.298;21.164;2022-07-09T08:01:19;2.25;;;1.30;;
18316;SDS011;9284;52.298;21.164;2022-07-09T08:03:47;2.78;;;1.83;;
18316;SDS011;9284;52.298;21.164;2022-07-09T08:06:16;3.85;;;1.63;;
18316;SDS011;9284;52.298;21.164;2022-07-09T08:08:45;4.45;;;1.45;;
18316;SDS011;9284;52.298;21.164;2022-07-09T08:11:14;2.22;;;1.70;;
18316;SDS011;9284;52.298;21.164;2022-07-09T08:13:42;2.08;;;1.73;;
18316;SDS011;9284;52.298;21.164;2022-07-09T08:16:10;3.22;;;1.63;;
18316;SDS011;9284;52.298;21.164;2022-07-09T08:18:38;2.60;;;1.60;;
18316;SDS011;9284;52.298;21.164;2022-07-09T08:21:08;3.03;;;1.90;;
18316;SDS011;9284;52.298;21.164;2022-07-09T08:23:36;6.68;;;1.70;;
18316;SDS011;9284;52.298;21.164;2022-07-09T08:26:22;3.45;;;1.75;;
18316;SDS011;9284;52.298;21.164;2022-07-09T08:28:50;3.72;;;2.00;;
18316;SDS011;9284;52.298;21.164;2022-07-09T08:31:19;5.10;;;2.13;;
18316;SDS011;9284;52.298;21.164;2022-07-09T08:33:48;4.70;;;2.33;;
18316;SDS011;9284;52.298;21.164;2022-07-09T08:36:17;4.38;;;2.45;;
18316;SDS011;9284;52.298;21.164;2022-07-09T08:38:46;3.08;;;1.83;;
18316;SDS011;9284;52.298;21.164;2022-07-09T08:41:17;3.03;;;1.88;;
18316;SDS011;9284;52.298;21.164;2022-07-09T08:43:53;2.60;;;1.58;;
18316;SDS011;9284;52.298;21.164;2022-07-09T08:46:21;2.38;;;1.48;;
18316;SDS011;9284;52.298;21.164;2022-07-09T08:48:50;5.20;;;1.60;;
18316;SDS011;9284;52.298;21.164;2022-07-09T08:51:19;3.10;;;1.50;;
18316;SDS011;9284;52.298;21.164;2022-07-09T08:53:48;3.33;;;1.40;;
18316;SDS011;9284;52.298;21.164;2022-07-09T08:56:16;4.43;;;1.40;;
18316;SDS011;9284;52.298;21.164;2022-07-09T08:58:44;2.45;;;1.40;;
18316;SDS011;9284;52.298;21.164;2022-07-09T09:01:14;5.13;;;1.45;;
18316;SDS011;9284;52.298;21.164;2022-07-09T09:03:44;3.45;;;1.40;;
18316;SDS011;9284;52.298;21.164;2022-07-09T09:06:15;2.58;;;1.20;;
18316;SDS011;9284;52.298;21.164;2022-07-09T09:08:44;4.53;;;1.58;;
18316;SDS011;9284;52.298;21.164;2022-07-09T09:11:13;2.45;;;1.20;;
18316;SDS011;9284;52.298;21.164;2022-07-09T09:13:43;1.55;;;1.27;;
18316;SDS011;9284;52.298;21.164;2022-07-09T09:16:14;4.63;;;1.30;;
18316;SDS011;9284;52.298;21.164;2022-07-09T09:18:44;2.47;;;1.38;;
18316;SDS011;9284;52.298;21.164;2022-07-09T09:21:14;3.85;;;1.15;;
18316;SDS011;9284;52.298;21.164;2022-07-09T09:23:45;4.38;;;1.20;;
18316;SDS011;9284;52.298;21.164;2022-07-09T09:26:14;2.58;;;1.60;;
18316;SDS011;9284;52.298;21.164;2022-07-09T09:28:53;2.15;;;1.17;;
18316;SDS011;9284;52.298;21.164;2022-07-09T09:31:24;5.65;;;1.10;;
18316;SDS011;9284;52.298;21.164;2022-07-09T09:33:55;3.83;;;1.30;;
18316;SDS011;9284;52.298;21.164;2022-07-09T09:36:28;3.88;;;1.23;;
18316;SDS011;9284;52.298;21.164;2022-07-09T09:39:07;2.33;;;1.25;;
18316;SDS011;9284;52.298;21.164;2022-07-09T09:41:39;2.38;;;1.20;;
18316;SDS011;9284;52.298;21.164;2022-07-09T09:44:09;3.97;;;1.00;;
18316;SDS011;9284;52.298;21.164;2022-07-09T09:46:40;3.88;;;1.13;;
18316;SDS011;9284;52.298;21.164;2022-07-09T09:49:10;2.70;;;1.15;;
18316;SDS011;9284;52.298;21.164;2022-07-09T09:51:47;1.60;;;1.00;;
18316;SDS011;9284;52.298;21.164;2022-07-09T09:54:18;3.40;;;1.40;;
18316;SDS011;9284;52.298;21.164;2022-07-09T09:56:48;6.25;;;1.48;;
18316;SDS011;9284;52.298;21.164;2022-07-09T09:59:17;6.25;;;1.50;;
18316;SDS011;9284;52.298;21.164;2022-07-09T10:01:46;2.58;;;1.00;;
18316;SDS011;9284;52.298;21.164;2022-07-09T10:04:15;3.22;;;1.20;;
18316;SDS011;9284;52.298;21.164;2022-07-09T10:06:45;2.30;;;1.10;;
18316;SDS011;9284;52.298;21.164;2022-07-09T10:09:14;3.22;;;1.10;;
18316;SDS011;9284;52.298;21.164;2022-07-09T10:11:43;2.67;;;1.02;;
18316;SDS011;9284;52.298;21.164;2022-07-09T10:14:16;3.83;;;1.30;;
18316;SDS011;9284;52.298;21.164;2022-07-09T10:16:45;3.50;;;1.30;;
18316;SDS011;9284;52.298;21.164;2022-07-09T10:19:24;3.35;;;1.10;;
18316;SDS011;9284;52.298;21.164;2022-07-09T10:21:53;2.97;;;1.33;;
18316;SDS011;9284;52.298;21.164;2022-07-09T10:24:26;2.38;;;1.40;;
18316;SDS011;9284;52.298;21.164;2022-07-09T10:27:02;3.75;;;1.50;;
18316;SDS011;9284;52.298;21.164;2022-07-09T10:29:32;3.50;;;1.45;;
18316;SDS011;9284;52.298;21.164;2022-07-09T10:32:02;4.47;;;1.40;;
18316;SDS011;9284;52.298;21.164;2022-07-09T10:34:36;2.25;;;1.20;;
18316;SDS011;9284;52.298;21.164;2022-07-09T10:37:14;5.80;;;1.50;;
18316;SDS011;9284;52.298;21.164;2022-07-09T10:39:52;5.07;;;1.40;;
18316;SDS011;9284;52.298;21.164;2022-07-09T10:42:21;2.28;;;1.27;;
18316;SDS011;9284;52.298;21.164;2022-07-09T10:44:50;2.03;;;1.15;;
18316;SDS011;9284;52.298;21.164;2022-07-09T10:47:21;2.90;;;1.60;;
18316;SDS011;9284;52.298;21.164;2022-07-09T10:49:49;4.03;;;1.23;;
18316;SDS011;9284;52.298;21.164;2022-07-09T10:52:17;2.38;;;1.30;;
18316;SDS011;9284;52.298;21.164;2022-07-09T10:54:47;2.95;;;1.30;;
18316;SDS011;9284;52.298;21.164;2022-07-09T10:57:16;4.38;;;1.38;;
18316;SDS011;9284;52.298;21.164;2022-07-09T10:59:44;2.42;;;1.20;;
18316;SDS011;9284;52.298;21.164;2022-07-09T11:02:30;3.50;;;1.40;;
18316;SDS011;9284;52.298;21.164;2022-07-09T11:04:58;1.75;;;1.27;;
18316;SDS011;9284;52.298;21.164;2022-07-09T11:07:26;2.58;;;1.40;;
18316;SDS011;9284;52.298;21.164;2022-07-09T11:09:56;2.13;;;1.48;;
18316;SDS011;9284;52.298;21.164;2022-07-09T11:12:24;4.32;;;1.50;;
18316;SDS011;9284;52.298;21.164;2022-07-09T11:14:52;4.03;;;1.67;;
18316;SDS011;9284;52.298;21.164;2022-07-09T11:17:22;5.65;;;1.67;;
18316;SDS011;9284;52.298;21.164;2022-07-09T11:19:50;3.72;;;1.75;;
18316;SDS011;9284;52.298;21.164;2022-07-09T11:22:18;2.40;;;1.50;;
18316;SDS011;9284;52.298;21.164;2022-07-09T11:24:46;3.58;;;1.80;;
18316;SDS011;9284;52.298;21.164;2022-07-09T11:27:14;2.95;;;1.48;;
18316;SDS011;9284;52.298;21.164;2022-07-09T11:29:45;3.22;;;1.75;;
18316;SDS011;9284;52.298;21.164;2022-07-09T11:32:17;5.65;;;1.40;;
18316;SDS011;9284;52.298;21.164;2022-07-09T11:34:50;3.92;;;1.38;;
18316;SDS011;9284;52.298;21.164;2022-07-09T11:37:22;2.60;;;1.38;;
18316;SDS011;9284;52.298;21.164;2022-07-09T11:39:51;1.40;;;1.20;;
18316;SDS011;9284;52.298;21.164;2022-07-09T11:42:20;3.30;;;1.60;;
18316;SDS011;9284;52.298;21.164;2022-07-09T11:44:55;6.53;;;1.52;;
18316;SDS011;9284;52.298;21.164;2022-07-09T11:47:31;8.43;;;1.52;;
18316;SDS011;9284;52.298;21.164;2022-07-09T11:50:05;2.22;;;1.40;;
18316;SDS011;9284;52.298;21.164;2022-07-09T11:52:35;2.42;;;1.40;;
18316;SDS011;9284;52.298;21.164;2022-07-09T11:55:09;4.38;;;1.70;;
18316;SDS011;9284;52.298;21.164;2022-07-09T11:57:38;2.38;;;1.75;;
18316;SDS011;9284;52.298;21.164;2022-07-09T12:00:07;2.25;;;1.33;;
18316;SDS011;9284;52.298;21.164;2022-07-09T12:02:47;5.00;;;1.60;;
18316;SDS011;9284;52.298;21.164;2022-07-09T12:05:24;2.92;;;1.55;;
18316;SDS011;9284;52.298;21.164;2022-07-09T12:07:56;2.45;;;1.75;;
18316;SDS011;9284;52.298;21.164;2022-07-09T12:10:26;6.63;;;1.80;;
18316;SDS011;9284;52.298;21.164;2022-07-09T12:12:56;2.58;;;1.50;;
18316;SDS011;9284;52.298;21.164;2022-07-09T12:15:24;4.32;;;1.85;;
18316;SDS011;9284;52.298;21.164;2022-07-09T12:17:54;2.47;;;1.60;;
18316;SDS011;9284;52.298;21.164;2022-07-09T12:20:25;2.85;;;1.60;;
18316;SDS011;9284;52.298;21.164;2022-07-09T12:22:55;5.78;;;1.70;;
18316;SDS011;9284;52.298;21.164;2022-07-09T12:25:23;1.45;;;1.35;;
18316;SDS011;9284;52.298;21.164;2022-07-09T12:27:51;4.25;;;1.27;;
18316;SDS011;9284;52.298;21.164;2022-07-09T12:30:19;5.60;;;1.50;;
18316;SDS011;9284;52.298;21.164;2022-07-09T12:32:48;6.90;;;1.35;;
18316;SDS011;9284;52.298;21.164;2022-07-09T12:35:17;3.13;;;1.23;;
18316;SDS011;9284;52.298;21.164;2022-07-09T12:37:46;5.80;;;1.60;;
18316;SDS011;9284;52.298;21.164;2022-07-09T12:40:14;2.80;;;1.50;;
18316;SDS011;9284;52.298;21.164;2022-07-09T12:42:43;3.85;;;1.30;;
18316;SDS011;9284;52.298;21.164;2022-07-09T12:45:11;5.20;;;1.63;;
18316;SDS011;9284;52.298;21.164;2022-07-09T12:47:39;3.17;;;1.30;;
18316;SDS011;9284;52.298;21.164;2022-07-09T12:50:07;7.63;;;1.42;;
18316;SDS011;9284;52.298;21.164;2022-07-09T12:52:38;2.15;;;1.20;;
18316;SDS011;9284;52.298;21.164;2022-07-09T12:55:08;2.75;;;1.48;;
18316;SDS011;9284;52.298;21.164;2022-07-09T12:57:36;5.03;;;1.38;;
18316;SDS011;9284;52.298;21.164;2022-07-09T13:00:06;4.00;;;1.23;;
18316;SDS011;9284;52.298;21.164;2022-07-09T13:02:35;3.70;;;1.38;;
18316;SDS011;9284;52.298;21.164;2022-07-09T13:05:03;1.75;;;1.05;;
18316;SDS011;9284;52.298;21.164;2022-07-09T13:07:32;2.75;;;1.25;;
18316;SDS011;9284;52.298;21.164;2022-07-09T13:10:00;4.20;;;1.52;;
18316;SDS011;9284;52.298;21.164;2022-07-09T13:12:29;3.25;;;1.10;;
18316;SDS011;9284;52.298;21.164;2022-07-09T13:14:59;2.28;;;1.38;;
18316;SDS011;9284;52.298;21.164;2022-07-09T13:17:27;2.70;;;1.60;;
18316;SDS011;9284;52.298;21.164;2022-07-09T13:19:58;2.45;;;1.20;;
18316;SDS011;9284;52.298;21.164;2022-07-09T13:22:26;1.85;;;1.33;;
18316;SDS011;9284;52.298;21.164;2022-07-09T13:24:54;2.08;;;1.20;;
18316;SDS011;9284;52.298;21.164;2022-07-09T13:27:23;3.35;;;1.30;;
18316;SDS011;9284;52.298;21.164;2022-07-09T13:29:53;4.72;;;2.25;;
18316;SDS011;9284;52.298;21.164;2022-07-09T13:32:22;4.30;;;1.80;;
18316;SDS011;9284;52.298;21.164;2022-07-09T13:34:50;3.15;;;1.50;;
18316;SDS011;9284;52.298;21.164;2022-07-09T13:37:19;5.45;;;1.40;;
18316;SDS011;9284;52.298;21.164;2022-07-09T13:39:48;3.15;;;1.50;;
18316;SDS011;9284;52.298;21.164;2022-07-09T13:42:16;1.95;;;1.48;;
18316;SDS011;9284;52.298;21.164;2022-07-09T13:44:44;5.10;;;1.50;;
18316;SDS011;9284;52.298;21.164;2022-07-09T13:47:14;3.40;;;1.60;;
18316;SDS011;9284;52.298;21.164;2022-07-09T13:49:42;2.65;;;1.60;;
18316;SDS011;9284;52.298;21.164;2022-07-09T13:52:10;4.18;;;1.67;;
18316;SDS011;9284;52.298;21.164;2022-07-09T13:54:38;3.80;;;1.85;;
18316;SDS011;9284;52.298;21.164;2022-07-09T13:57:06;3.45;;;1.63;;
18316;SDS011;9284;52.298;21.164;2022-07-09T13:59:34;3.28;;;2.00;;
18316;SDS011;9284;52.298;21.164;2022-07-09T14:02:03;5.72;;;2.53;;
18316;SDS011;9284;52.298;21.164;2022-07-09T14:04:32;3.60;;;2.58;;
18316;SDS011;9284;52.298;21.164;2022-07-09T14:07:01;4.40;;;2.50;;
18316;SDS011;9284;52.298;21.164;2022-07-09T14:09:29;6.22;;;2.55;;
18316;SDS011;9284;52.298;21.164;2022-07-09T14:11:57;4.47;;;2.70;;
18316;SDS011;9284;52.298;21.164;2022-07-09T14:14:25;6.28;;;2.83;;
18316;SDS011;9284;52.298;21.164;2022-07-09T14:16:53;5.28;;;2.97;;
18316;SDS011;9284;52.298;21.164;2022-07-09T14:19:22;3.85;;;3.10;;
18316;SDS011;9284;52.298;21.164;2022-07-09T14:21:51;8.05;;;3.33;;
18316;SDS011;9284;52.298;21.164;2022-07-09T14:24:20;5.68;;;3.33;;
18316;SDS011;9284;52.298;21.164;2022-07-09T14:26:48;6.90;;;3.13;;
18316;SDS011;9284;52.298;21.164;2022-07-09T14:29:17;5.03;;;3.30;;
18316;SDS011;9284;52.298;21.164;2022-07-09T14:31:49;4.90;;;3.58;;
18316;SDS011;9284;52.298;21.164;2022-07-09T14:34:17;10.38;;;3.47;;
18316;SDS011;9284;52.298;21.164;2022-07-09T14:36:46;5.13;;;3.38;;
18316;SDS011;9284;52.298;21.164;2022-07-09T14:39:18;6.05;;;3.22;;
18316;SDS011;9284;52.298;21.164;2022-07-09T14:41:47;3.92;;;2.70;;
18316;SDS011;9284;52.298;21.164;2022-07-09T14:44:16;4.68;;;2.67;;
18316;SDS011;9284;52.298;21.164;2022-07-09T14:46:44;3.92;;;3.17;;
18316;SDS011;9284;52.298;21.164;2022-07-09T14:49:12;5.63;;;2.83;;
18316;SDS011;9284;52.298;21.164;2022-07-09T14:51:40;3.35;;;2.83;;
18316;SDS011;9284;52.298;21.164;2022-07-09T14:54:08;5.22;;;2.80;;
18316;SDS011;9284;52.298;21.164;2022-07-09T14:56:38;5.57;;;2.72;;
18316;SDS011;9284;52.298;21.164;2022-07-09T14:59:07;4.30;;;3.33;;
18316;SDS011;9284;52.298;21.164;2022-07-09T15:01:37;5.82;;;2.80;;
18316;SDS011;9284;52.298;21.164;2022-07-09T15:04:05;4.93;;;2.70;;
18316;SDS011;9284;52.298;21.164;2022-07-09T15:06:34;7.13;;;2.70;;
18316;SDS011;9284;52.298;21.164;2022-07-09T15:09:02;4.15;;;2.72;;
18316;SDS011;9284;52.298;21.164;2022-07-09T15:11:30;3.25;;;2.45;;
18316;SDS011;9284;52.298;21.164;2022-07-09T15:14:00;8.63;;;2.55;;
18316;SDS011;9284;52.298;21.164;2022-07-09T15:16:28;2.72;;;2.28;;
18316;SDS011;9284;52.298;21.164;2022-07-09T15:18:56;6.30;;;2.75;;
18316;SDS011;9284;52.298;21.164;2022-07-09T15:21:25;4.65;;;2.88;;
18316;SDS011;9284;52.298;21.164;2022-07-09T15:23:55;5.05;;;2.90;;
18316;SDS011;9284;52.298;21.164;2022-07-09T15:26:23;4.60;;;2.75;;
18316;SDS011;9284;52.298;21.164;2022-07-09T15:28:52;6.40;;;2.60;;
18316;SDS011;9284;52.298;21.164;2022-07-09T15:31:21;3.35;;;2.50;;
18316;SDS011;9284;52.298;21.164;2022-07-09T15:33:50;5.90;;;2.90;;
18316;SDS011;9284;52.298;21.164;2022-07-09T15:36:18;6.05;;;2.90;;
18316;SDS011;9284;52.298;21.164;2022-07-09T15:38:47;4.70;;;2.83;;
18316;SDS011;9284;52.298;21.164;2022-07-09T15:41:15;5.22;;;2.47;;
18316;SDS011;9284;52.298;21.164;2022-07-09T15:43:43;6.28;;;2.70;;
18316;SDS011;9284;52.298;21.164;2022-07-09T15:46:11;2.95;;;2.13;;
18316;SDS011;9284;52.298;21.164;2022-07-09T15:48:41;3.78;;;2.20;;
18316;SDS011;9284;52.298;21.164;2022-07-09T15:51:09;3.78;;;2.30;;
18316;SDS011;9284;52.298;21.164;2022-07-09T15:53:37;3.38;;;2.08;;
18316;SDS011;9284;52.298;21.164;2022-07-09T15:56:05;3.47;;;2.25;;
18316;SDS011;9284;52.298;21.164;2022-07-09T15:58:34;7.60;;;2.20;;
18316;SDS011;9284;52.298;21.164;2022-07-09T16:01:02;3.83;;;1.95;;
18316;SDS011;9284;52.298;21.164;2022-07-09T16:03:31;3.28;;;2.10;;
18316;SDS011;9284;52.298;21.164;2022-07-09T16:06:00;5.10;;;2.20;;
18316;SDS011;9284;52.298;21.164;2022-07-09T16:08:33;5.57;;;2.38;;
18316;SDS011;9284;52.298;21.164;2022-07-09T16:11:02;3.58;;;2.20;;
18316;SDS011;9284;52.298;21.164;2022-07-09T16:13:44;5.55;;;2.78;;
18316;SDS011;9284;52.298;21.164;2022-07-09T16:16:12;6.28;;;2.30;;
18316;SDS011;9284;52.298;21.164;2022-07-09T16:18:41;5.18;;;2.25;;
18316;SDS011;9284;52.298;21.164;2022-07-09T16:21:10;6.78;;;2.45;;
18316;SDS011;9284;52.298;21.164;2022-07-09T16:23:39;4.10;;;2.45;;
18316;SDS011;9284;52.298;21.164;2022-07-09T16:26:07;4.28;;;2.17;;
18316;SDS011;9284;52.298;21.164;2022-07-09T16:28:35;6.32;;;2.53;;
18316;SDS011;9284;52.298;21.164;2022-07-09T16:31:04;6.07;;;2.45;;
18316;SDS011;9284;52.298;21.164;2022-07-09T16:33:32;4.13;;;2.10;;
18316;SDS011;9284;52.298;21.164;2022-07-09T16:36:00;5.78;;;2.30;;
18316;SDS011;9284;52.298;21.164;2022-07-09T16:38:31;3.05;;;2.40;;
18316;SDS011;9284;52.298;21.164;2022-07-09T16:40:59;4.88;;;2.35;;
18316;SDS011;9284;52.298;21.164;2022-07-09T16:43:28;6.70;;;2.50;;
18316;SDS011;9284;52.298;21.164;2022-07-09T16:45:56;4.88;;;2.40;;
18316;SDS011;9284;52.298;21.164;2022-07-09T16:48:36;4.53;;;2.30;;
18316;SDS011;9284;52.298;21.164;2022-07-09T16:51:06;4.40;;;2.28;;
18316;SDS011;9284;52.298;21.164;2022-07-09T16:53:36;5.22;;;2.28;;
18316;SDS011;9284;52.298;21.164;2022-07-09T16:56:04;6.18;;;2.45;;
18316;SDS011;9284;52.298;21.164;2022-07-09T16:58:33;3.38;;;2.15;;
18316;SDS011;9284;52.298;21.164;2022-07-09T17:01:02;5.57;;;2.65;;
18316;SDS011;9284;52.298;21.164;2022-07-09T17:03:31;3.70;;;2.00;;
18316;SDS011;9284;52.298;21.164;2022-07-09T17:06:00;6.25;;;2.70;;
18316;SDS011;9284;52.298;21.164;2022-07-09T17:08:29;7.32;;;2.53;;
18316;SDS011;9284;52.298;21.164;2022-07-09T17:10:59;4.30;;;2.28;;
18316;SDS011;9284;52.298;21.164;2022-07-09T17:13:28;4.28;;;2.42;;
18316;SDS011;9284;52.298;21.164;2022-07-09T17:15:56;4.18;;;2.30;;
18316;SDS011;9284;52.298;21.164;2022-07-09T17:18:25;2.63;;;2.10;;
18316;SDS011;9284;52.298;21.164;2022-07-09T17:20:53;2.95;;;2.08;;
18316;SDS011;9284;52.298;21.164;2022-07-09T17:23:21;3.63;;;2.40;;
18316;SDS011;9284;52.298;21.164;2022-07-09T17:25:49;4.72;;;2.40;;
18316;SDS011;9284;52.298;21.164;2022-07-09T17:28:19;3.78;;;2.55;;
18316;SDS011;9284;52.298;21.164;2022-07-09T17:30:48;3.85;;;2.58;;
18316;SDS011;9284;52.298;21.164;2022-07-09T17:33:16;6.22;;;2.50;;
18316;SDS011;9284;52.298;21.164;2022-07-09T17:35:44;3.70;;;2.70;;
18316;SDS011;9284;52.298;21.164;2022-07-09T17:38:13;4.60;;;2.35;;
18316;SDS011;9284;52.298;21.164;2022-07-09T17:40:41;3.30;;;2.25;;
18316;SDS011;9284;52.298;21.164;2022-07-09T17:43:09;8.05;;;3.10;;
18316;SDS011;9284;52.298;21.164;2022-07-09T17:45:39;3.33;;;2.28;;
18316;SDS011;9284;52.298;21.164;2022-07-09T17:48:09;4.88;;;2.80;;
18316;SDS011;9284;52.298;21.164;2022-07-09T17:50:37;5.35;;;2.92;;
18316;SDS011;9284;52.298;21.164;2022-07-09T17:53:05;7.47;;;3.03;;
18316;SDS011;9284;52.298;21.164;2022-07-09T17:55:33;6.22;;;2.90;;
18316;SDS011;9284;52.298;21.164;2022-07-09T17:58:02;5.55;;;2.83;;
18316;SDS011;9284;52.298;21.164;2022-07-09T18:00:31;5.68;;;2.60;;
18316;SDS011;9284;52.298;21.164;2022-07-09T18:03:02;6.22;;;3.38;;
18316;SDS011;9284;52.298;21.164;2022-07-09T18:05:30;7.35;;;3.22;;
18316;SDS011;9284;52.298;21.164;2022-07-09T18:07:59;3.35;;;2.85;;
18316;SDS011;9284;52.298;21.164;2022-07-09T18:10:28;6.38;;;2.85;;
18316;SDS011;9284;52.298;21.164;2022-07-09T18:12:56;6.07;;;3.08;;